KRAL Airport Information

Runway Information
Runway 09 Length 5401 ft width 100 ft
Elevation 760 ft Threshold 0 ft Heading 103
Runway 27 Length 5401 ft Width 100 ft
Elevation 818 ft Threshold 0 ft Heading 283
Runway 16 Length 2851 ft width 48 ft
Elevation 774 ft Threshold 0 ft Heading 179
Runway 34 Length 2851 ft Width 48 ft
Elevation 751 ft Threshold 0 ft Heading 359
Airport Frequencies
Type A/D Name SOCAL APP/ Frequency 135.4 MHZ
Type ATIS Name ATIS Frequency 128.8 MHZ
Type CTAF Name CTAF Frequency 121 MHZ
Type GND Name GND Frequency 121.7 MHZ
Type RDO Name RDO Frequency 25.54 MHZ
Type RDO Name RDO Frequency 122.05 MHZ
Type TWR Name TWR Frequency 121 MHZ
Type UNIC Name UNICOM Frequency 122.95 MHZ
Airport Navaids
Type VOR Name Riverside Frequency 112400 KHZ
Airport Weather Information & NOTAM
ADDS - METARS form results

(1935 UTC 20 October 2021)
Data provider http://aviationweather.gov/metar/data/
 
METAR text: KRAL 201853Z 00000KT 10SM CLR 21/06 A3010 RMK AO2 SLP181 T02060061 $
Conditions at: KRAL (RIVERSIDE , CA, US) observed 1853 UTC 20 October 2021
Temperature: 20.6°C (69°F)
Dewpoint: 6.1°C (43°F) [RH = 39%]
Pressure (altimeter): 30.10 inches Hg (1019.4 mb)
[Sea-level pressure: 1018.1 mb]
Winds: calm
Visibility: 10 or more miles (16+ km)
Ceiling: at least 12,000 feet AGL
Clouds: sky clear below 12,000 feet AGL
Weather:
SOME DATA ABOVE MAY BE INACCURATE!!!
"$" is an indication the sensor requires maintenance